createdAt,value
2018-08-30T00:01:30.430Z,12.53
2018-08-30T00:03:58.908Z,13.20
2018-08-30T00:06:27.000Z,11.50
2018-08-30T00:08:55.119Z,12.67
2018-08-30T00:11:23.198Z,11.20
2018-08-30T00:13:51.421Z,12.25
2018-08-30T00:16:19.942Z,13.13
2018-08-30T00:18:48.119Z,12.73
2018-08-30T00:21:16.275Z,10.40
2018-08-30T00:23:44.567Z,12.43
2018-08-30T00:26:13.559Z,12.58
2018-08-30T00:28:41.649Z,12.93
2018-08-30T00:31:09.821Z,10.90
2018-08-30T00:33:39.106Z,11.24
2018-08-30T00:36:07.235Z,12.00
2018-08-30T00:38:35.335Z,12.98
2018-08-30T00:41:03.503Z,12.70
2018-08-30T00:43:31.652Z,11.73
2018-08-30T00:45:59.801Z,11.33
2018-08-30T00:48:27.956Z,11.57
2018-08-30T00:50:56.068Z,13.13
2018-08-30T00:53:24.160Z,12.40
2018-08-30T00:55:52.265Z,13.08
2018-08-30T00:58:20.407Z,11.78
2018-08-30T01:00:48.562Z,11.33
2018-08-30T01:03:17.037Z,12.10
2018-08-30T01:05:45.150Z,12.30
2018-08-30T01:08:13.272Z,12.10
2018-08-30T01:10:41.411Z,12.50
2018-08-30T01:13:09.805Z,11.60
2018-08-30T01:15:37.949Z,11.43
2018-08-30T01:18:06.117Z,12.20
2018-08-30T01:20:34.261Z,12.33
2018-08-30T01:23:02.396Z,12.50
2018-08-30T01:25:30.784Z,12.33
2018-08-30T01:27:58.950Z,14.40
2018-08-30T01:30:27.104Z,12.05
2018-08-30T01:32:55.259Z,12.80
2018-08-30T01:35:23.419Z,12.10
2018-08-30T01:37:51.537Z,11.68
2018-08-30T01:40:19.665Z,12.35
2018-08-30T01:42:47.808Z,12.97
2018-08-30T01:45:15.918Z,12.53
2018-08-30T01:47:44.080Z,12.73
2018-08-30T01:50:12.271Z,13.63
2018-08-30T01:52:40.387Z,12.97
2018-08-30T01:55:08.515Z,13.47
2018-08-30T01:57:36.632Z,13.10
2018-08-30T02:00:04.910Z,13.77
2018-08-30T02:02:33.052Z,14.20
2018-08-30T02:05:01.208Z,12.47
2018-08-30T02:07:29.384Z,14.10
2018-08-30T02:09:57.621Z,13.90
2018-08-30T02:12:25.757Z,15.47
2018-08-30T02:14:53.877Z,13.70
2018-08-30T02:17:22.026Z,13.57
2018-08-30T02:19:50.157Z,13.13
2018-08-30T02:22:18.387Z,12.90
2018-08-30T02:24:46.565Z,13.90
2018-08-30T02:27:14.664Z,13.50
2018-08-30T02:29:42.765Z,13.17
2018-08-30T02:32:10.917Z,13.50
2018-08-30T02:34:39.100Z,13.22
2018-08-30T02:37:07.220Z,14.60
2018-08-30T02:39:35.425Z,14.57
2018-08-30T02:42:03.552Z,12.83
2018-08-30T02:44:31.750Z,12.93
2018-08-30T02:46:59.861Z,13.77
2018-08-30T02:49:28.060Z,14.03
2018-08-30T02:51:56.257Z,15.43
2018-08-30T02:54:24.469Z,14.43
2018-08-30T02:56:52.613Z,16.17
2018-08-30T02:59:20.717Z,15.77
2018-08-30T03:01:48.885Z,15.40
2018-08-30T03:04:17.049Z,14.73
2018-08-30T03:06:51.520Z,15.07
2018-08-30T03:09:19.747Z,15.40
2018-08-30T03:11:47.886Z,16.17
2018-08-30T03:14:16.046Z,16.67
2018-08-30T03:16:44.206Z,17.47
2018-08-30T03:19:12.377Z,17.02
2018-08-30T03:21:40.516Z,17.67
2018-08-30T03:24:08.676Z,17.67
2018-08-30T03:26:36.787Z,19.07
2018-08-30T03:29:05.508Z,19.75
2018-08-30T03:31:33.904Z,19.62
2018-08-30T03:34:02.056Z,23.15
2018-08-30T03:36:30.180Z,19.80
2018-08-30T03:38:58.328Z,20.70
2018-08-30T03:41:26.422Z,21.77
2018-08-30T03:43:54.579Z,24.55
2018-08-30T03:46:22.743Z,22.27
2018-08-30T03:48:50.835Z,24.10
2018-08-30T03:51:18.974Z,24.73
2018-08-30T03:53:47.121Z,24.33
2018-08-30T03:56:15.254Z,27.60
2018-08-30T03:58:43.384Z,25.33
2018-08-30T04:01:11.605Z,26.30
2018-08-30T04:03:39.722Z,30.10
2018-08-30T04:06:07.881Z,29.20
2018-08-30T04:08:36.045Z,29.03
2018-08-30T04:11:04.205Z,30.30
2018-08-30T04:13:32.412Z,31.07
2018-08-30T04:16:00.513Z,30.67
2018-08-30T04:18:28.648Z,31.90
2018-08-30T04:20:56.842Z,32.63
2018-08-30T04:23:24.980Z,31.90
2018-08-30T04:25:53.133Z,34.58
2018-08-30T04:28:21.229Z,39.07
2018-08-30T04:30:49.413Z,38.50
2018-08-30T04:33:17.607Z,40.20
2018-08-30T04:35:45.757Z,40.25
2018-08-30T04:38:13.897Z,39.18
2018-08-30T04:40:42.048Z,36.45
2018-08-30T04:43:10.824Z,37.50
2018-08-30T04:45:39.012Z,39.53
2018-08-30T04:48:07.138Z,41.50
2018-08-30T04:50:35.321Z,40.37
2018-08-30T04:53:03.448Z,43.50
2018-08-30T04:55:31.558Z,40.53
2018-08-30T04:57:59.720Z,39.73
2018-08-30T05:00:27.901Z,37.00
2018-08-30T05:02:56.001Z,39.23
2018-08-30T05:05:24.134Z,38.00
2018-08-30T05:07:52.305Z,39.27
2018-08-30T05:10:20.481Z,44.00
2018-08-30T05:12:48.659Z,42.20
2018-08-30T05:15:16.785Z,42.78
2018-08-30T05:17:44.953Z,40.38
2018-08-30T05:20:13.115Z,38.75
2018-08-30T05:22:41.252Z,46.53
2018-08-30T05:25:09.394Z,39.83
2018-08-30T05:27:37.608Z,41.63
2018-08-30T05:30:05.761Z,42.48
2018-08-30T05:32:34.597Z,43.93
2018-08-30T05:35:02.775Z,42.83
2018-08-30T05:37:31.020Z,46.20
2018-08-30T05:39:59.217Z,44.30
2018-08-30T05:42:27.338Z,41.80
2018-08-30T05:44:55.491Z,42.57
2018-08-30T05:47:23.611Z,41.67
2018-08-30T05:49:51.745Z,40.40
2018-08-30T05:52:19.893Z,38.07
2018-08-30T05:54:49.111Z,42.30
2018-08-30T05:57:17.206Z,38.70
2018-08-30T05:59:45.337Z,44.40
2018-08-30T06:02:13.500Z,40.60
2018-08-30T06:04:41.650Z,41.30
2018-08-30T06:07:09.842Z,38.53
2018-08-30T06:09:37.975Z,42.10
2018-08-30T06:12:06.175Z,46.28
2018-08-30T06:14:34.325Z,39.83
2018-08-30T06:17:02.493Z,46.37
2018-08-30T06:19:30.683Z,42.78
2018-08-30T06:21:58.833Z,44.00
2018-08-30T06:24:26.984Z,41.50
2018-08-30T06:26:55.249Z,40.80
2018-08-30T06:29:23.359Z,40.50
2018-08-30T06:31:51.640Z,43.40
2018-08-30T06:34:19.797Z,38.77
2018-08-30T06:36:48.009Z,44.60
2018-08-30T06:39:16.141Z,44.33
2018-08-30T06:41:44.295Z,46.57
2018-08-30T06:44:12.539Z,49.27
2018-08-30T06:46:40.754Z,47.20
2018-08-30T06:49:08.893Z,45.47
2018-08-30T06:51:37.053Z,42.63
2018-08-30T06:54:05.192Z,45.03
2018-08-30T06:56:33.378Z,44.50
2018-08-30T06:59:01.564Z,40.92
2018-08-30T07:01:29.747Z,43.27
2018-08-30T07:03:57.904Z,44.00
2018-08-30T07:06:26.060Z,45.35
2018-08-30T07:08:54.244Z,43.65
2018-08-30T07:11:22.449Z,40.97
2018-08-30T07:13:50.611Z,43.35
2018-08-30T07:16:18.781Z,46.07
2018-08-30T07:18:46.931Z,42.48
2018-08-30T07:21:15.126Z,45.08
2018-08-30T07:23:43.268Z,41.73
2018-08-30T07:26:11.432Z,44.00
2018-08-30T07:28:39.856Z,39.03
2018-08-30T07:31:07.865Z,41.03
2018-08-30T07:33:36.012Z,41.77
2018-08-30T07:36:04.136Z,40.53
2018-08-30T07:38:32.301Z,41.23
2018-08-30T07:41:00.513Z,36.00
2018-08-30T07:43:28.661Z,36.10
2018-08-30T07:45:56.848Z,34.97
2018-08-30T07:48:25.019Z,32.23
2018-08-30T07:50:53.230Z,26.67
2018-08-30T07:53:21.359Z,25.50
2018-08-30T07:55:49.472Z,22.90
2018-08-30T07:58:17.587Z,26.35
2018-08-30T08:00:48.010Z,30.55
2018-08-30T08:03:16.897Z,27.50
2018-08-30T08:05:45.021Z,26.37
2018-08-30T08:08:13.189Z,25.80
2018-08-30T08:10:41.359Z,24.40
2018-08-30T08:13:09.461Z,24.90
2018-08-30T08:15:37.599Z,23.83
2018-08-30T08:18:05.784Z,23.38
2018-08-30T08:20:33.943Z,22.42
2018-08-30T08:23:02.105Z,20.70
2018-08-30T08:25:30.331Z,23.98
2018-08-30T08:27:58.701Z,24.77
2018-08-30T08:30:26.877Z,26.03
2018-08-30T08:32:55.009Z,24.30
2018-08-30T08:35:23.230Z,30.00
2018-08-30T08:37:51.431Z,26.90
2018-08-30T08:40:19.537Z,32.33
2018-08-30T08:42:47.716Z,28.83
2018-08-30T08:45:15.881Z,30.13
2018-08-30T08:47:44.036Z,31.87
2018-08-30T08:50:12.216Z,34.23
2018-08-30T08:52:40.332Z,32.63
2018-08-30T08:55:08.500Z,33.30
2018-08-30T08:57:36.657Z,35.50
2018-08-30T09:00:04.921Z,34.50
2018-08-30T09:02:33.050Z,35.50
2018-08-30T09:05:01.177Z,37.57
2018-08-30T09:07:30.192Z,36.53
2018-08-30T09:09:58.275Z,37.50
2018-08-30T09:12:26.415Z,39.20
2018-08-30T09:14:54.554Z,38.50
2018-08-30T09:17:22.661Z,35.85
2018-08-30T09:19:50.807Z,37.00
2018-08-30T09:22:18.982Z,30.97
2018-08-30T09:24:47.110Z,35.60
2018-08-30T09:27:15.267Z,38.03
2018-08-30T09:29:43.403Z,34.67
2018-08-30T09:32:11.551Z,35.10
2018-08-30T09:34:39.726Z,33.40
2018-08-30T09:37:07.900Z,32.97
2018-08-30T09:39:36.111Z,29.23
2018-08-30T09:42:04.370Z,30.00
2018-08-30T09:44:32.516Z,30.87
2018-08-30T09:47:00.714Z,30.03
2018-08-30T09:49:28.960Z,30.57
2018-08-30T09:51:57.036Z,30.37
2018-08-30T09:54:25.183Z,30.50
2018-08-30T09:56:53.346Z,32.87
2018-08-30T09:59:21.476Z,28.50
2018-08-30T10:01:50.822Z,33.20
2018-08-30T10:04:20.064Z,33.53
2018-08-30T10:06:48.222Z,34.33
2018-08-30T10:09:16.372Z,35.60
2018-08-30T10:11:44.496Z,33.90
2018-08-30T10:14:12.700Z,33.10
2018-08-30T10:16:40.869Z,33.47
2018-08-30T10:19:08.989Z,35.45
2018-08-30T10:21:37.214Z,39.60
2018-08-30T10:24:05.357Z,37.80
2018-08-30T10:26:33.527Z,37.10
2018-08-30T10:29:01.688Z,35.43
2018-08-30T10:31:29.919Z,38.90
2018-08-30T10:33:58.068Z,37.90
2018-08-30T10:36:26.221Z,34.40
2018-08-30T10:38:54.410Z,35.47
2018-08-30T10:41:22.556Z,34.13
2018-08-30T10:43:50.776Z,33.50
2018-08-30T10:46:18.927Z,33.50
2018-08-30T10:48:47.088Z,36.50
2018-08-30T10:51:15.279Z,35.90
2018-08-30T10:53:44.364Z,31.23
2018-08-30T10:56:13.121Z,30.57
2018-08-30T10:58:41.278Z,29.70
2018-08-30T11:01:10.434Z,30.35
2018-08-30T11:03:39.381Z,30.00
2018-08-30T11:06:07.536Z,30.97
2018-08-30T11:08:35.694Z,31.37
2018-08-30T11:11:03.849Z,34.40
2018-08-30T11:13:31.995Z,31.57
2018-08-30T11:16:00.156Z,28.60
2018-08-30T11:18:28.276Z,27.17
2018-08-30T11:20:56.464Z,26.10
2018-08-30T11:23:24.588Z,27.10
2018-08-30T11:25:52.777Z,30.92
2018-08-30T11:28:20.928Z,26.60
2018-08-30T11:30:49.096Z,28.37
2018-08-30T11:33:17.220Z,27.73
2018-08-30T11:35:45.427Z,30.10
2018-08-30T11:38:13.583Z,30.83
2018-08-30T11:40:41.786Z,30.40
2018-08-30T11:43:09.967Z,28.47
2018-08-30T11:45:38.121Z,30.20
2018-08-30T11:48:06.302Z,27.30
2018-08-30T11:50:34.487Z,30.47
2018-08-30T11:53:02.613Z,29.57
2018-08-30T11:55:30.765Z,31.00
2018-08-30T11:57:58.915Z,30.47
2018-08-30T12:00:27.186Z,31.80
2018-08-30T12:02:57.048Z,32.80
2018-08-30T12:05:25.220Z,31.80
2018-08-30T12:07:53.408Z,32.40
2018-08-30T12:10:21.561Z,30.13
2018-08-30T12:12:49.741Z,31.40
2018-08-30T12:15:17.900Z,32.80
2018-08-30T12:17:46.064Z,31.87
2018-08-30T12:20:14.188Z,29.57
2018-08-30T12:22:42.341Z,29.87
2018-08-30T12:25:10.520Z,31.90
2018-08-30T12:27:38.646Z,29.02
2018-08-30T12:30:06.909Z,23.47
2018-08-30T12:32:35.083Z,24.50
2018-08-30T12:35:03.227Z,27.40
2018-08-30T12:37:31.272Z,28.67
2018-08-30T12:39:59.559Z,24.90
2018-08-30T12:42:27.694Z,22.70
2018-08-30T12:44:55.750Z,20.47
2018-08-30T12:47:24.141Z,17.67
2018-08-30T12:49:52.351Z,17.80
2018-08-30T12:52:20.529Z,19.30
2018-08-30T12:54:48.775Z,17.70
2018-08-30T12:57:16.974Z,17.77
2018-08-30T12:59:45.475Z,17.70
2018-08-30T13:02:14.527Z,18.52
2018-08-30T13:04:42.758Z,17.15
2018-08-30T13:07:10.803Z,17.50
2018-08-30T13:09:39.083Z,15.20
2018-08-30T13:12:07.717Z,14.55
2018-08-30T13:14:36.102Z,13.73
2018-08-30T13:17:04.381Z,13.40
2018-08-30T13:19:32.798Z,13.17
2018-08-30T13:22:01.067Z,14.33
2018-08-30T13:24:29.152Z,13.40
2018-08-30T13:26:57.177Z,14.07
2018-08-30T13:29:25.450Z,11.00
2018-08-30T13:31:53.608Z,12.60
2018-08-30T13:34:21.965Z,10.47
2018-08-30T13:36:50.290Z,10.50
2018-08-30T13:39:18.404Z,10.53
2018-08-30T13:41:46.519Z,9.07
2018-08-30T13:44:14.667Z,8.80
2018-08-30T13:46:43.269Z,10.23
2018-08-30T13:49:12.255Z,11.23
2018-08-30T13:51:40.556Z,9.87
2018-08-30T13:54:08.764Z,9.70
2018-08-30T13:56:37.105Z,9.93
2018-08-30T13:59:05.476Z,10.80
2018-08-30T14:01:33.825Z,11.30
2018-08-30T14:04:01.963Z,13.38
2018-08-30T14:06:30.163Z,13.22
2018-08-30T14:08:58.613Z,14.70
2018-08-30T14:11:27.265Z,14.97
2018-08-30T14:13:55.632Z,17.10
2018-08-30T14:16:23.517Z,16.50
2018-08-30T14:18:51.838Z,15.10
2018-08-30T14:21:20.048Z,17.10
2018-08-30T14:23:48.251Z,17.25
2018-08-30T14:26:16.427Z,15.47
2018-08-30T14:28:44.647Z,15.97
2018-08-30T14:31:12.845Z,15.27
2018-08-30T14:33:41.968Z,15.93
2018-08-30T14:36:10.448Z,15.60
2018-08-30T14:38:38.744Z,15.93
2018-08-30T14:41:07.105Z,13.87
2018-08-30T14:43:36.083Z,14.50
2018-08-30T14:46:04.270Z,14.30
2018-08-30T14:48:32.444Z,14.28
2018-08-30T14:51:00.813Z,13.83
2018-08-30T14:53:29.049Z,14.13
2018-08-30T14:55:57.064Z,14.45
2018-08-30T14:58:25.220Z,13.38
2018-08-30T15:00:53.397Z,13.60
2018-08-30T15:03:21.732Z,12.37
2018-08-30T15:05:50.005Z,11.83
2018-08-30T15:08:18.099Z,11.53
2018-08-30T15:10:46.535Z,10.60
2018-08-30T15:13:14.780Z,11.40
2018-08-30T15:15:42.960Z,10.27
2018-08-30T15:18:16.967Z,10.70
2018-08-30T15:23:51.012Z,8.60
2018-08-30T15:26:24.887Z,10.50
2018-08-30T15:28:59.686Z,7.63
2018-08-30T15:31:43.791Z,8.90
2018-08-30T15:34:18.676Z,8.03
2018-08-30T15:36:58.636Z,7.23
2018-08-30T15:39:32.233Z,9.30
2018-08-30T15:42:10.828Z,7.87
2018-08-30T15:44:59.553Z,8.33
2018-08-30T15:47:28.755Z,8.73
2018-08-30T15:49:56.752Z,7.53
2018-08-30T15:52:24.919Z,8.47
2018-08-30T15:54:53.113Z,7.10
2018-08-30T15:57:21.457Z,5.90
2018-08-30T15:59:49.405Z,6.40
2018-08-30T16:02:17.639Z,5.50
2018-08-30T16:04:45.841Z,5.23
2018-08-30T16:07:14.022Z,4.90
2018-08-30T16:09:43.013Z,4.90
2018-08-30T16:12:11.178Z,4.30
2018-08-30T16:14:39.288Z,4.73
2018-08-30T16:17:07.556Z,4.42
2018-08-30T16:19:35.701Z,4.20
2018-08-30T16:22:03.912Z,4.00
2018-08-30T16:24:32.067Z,4.30
2018-08-30T16:27:00.153Z,3.60
2018-08-30T16:29:28.296Z,3.80
2018-08-30T16:31:56.424Z,4.23
2018-08-30T16:34:24.576Z,4.33
2018-08-30T16:36:52.712Z,3.47
2018-08-30T16:39:20.849Z,3.60
2018-08-30T16:41:48.985Z,2.97
2018-08-30T16:44:17.123Z,2.80
2018-08-30T16:46:45.341Z,2.63
2018-08-30T16:49:13.461Z,3.10
2018-08-30T16:51:41.611Z,3.90
2018-08-30T16:54:09.729Z,3.50
2018-08-30T16:56:37.888Z,3.37
2018-08-30T16:59:06.145Z,3.43
2018-08-30T17:01:34.220Z,2.65
2018-08-30T17:04:02.392Z,3.03
2018-08-30T17:06:30.630Z,3.65
2018-08-30T17:08:58.704Z,3.70
2018-08-30T17:11:37.977Z,2.70
2018-08-30T17:14:19.964Z,3.20
2018-08-30T17:17:01.545Z,2.80
2018-08-30T17:19:42.614Z,2.75
2018-08-30T17:22:11.548Z,2.33
2018-08-30T17:24:39.730Z,3.30
2018-08-30T17:27:08.240Z,2.93
2018-08-30T17:29:36.378Z,2.70
2018-08-30T17:32:04.496Z,3.30
2018-08-30T17:34:32.633Z,3.13
2018-08-30T17:37:00.782Z,2.77
2018-08-30T17:39:28.835Z,3.30
2018-08-30T17:41:56.984Z,3.03
2018-08-30T17:44:25.110Z,3.00
2018-08-30T17:46:53.265Z,4.00
2018-08-30T17:49:21.413Z,3.43
2018-08-30T17:51:49.541Z,2.93
2018-08-30T17:54:17.786Z,2.50
2018-08-30T17:56:45.960Z,3.23
2018-08-30T17:59:14.112Z,3.57
2018-08-30T18:01:42.252Z,2.80
2018-08-30T18:04:10.391Z,3.40
2018-08-30T18:06:38.704Z,2.98
2018-08-30T18:09:07.353Z,2.73
2018-08-30T18:11:35.633Z,2.27
2018-08-30T18:14:03.778Z,2.40
2018-08-30T18:16:32.482Z,3.00
2018-08-30T18:19:00.695Z,3.83
2018-08-30T18:21:28.805Z,3.27
2018-08-30T18:23:57.353Z,3.25
2018-08-30T18:26:25.525Z,3.55
2018-08-30T18:28:53.655Z,3.72
2018-08-30T18:31:21.884Z,3.22
2018-08-30T18:33:49.986Z,4.33
2018-08-30T18:36:18.236Z,3.40
2018-08-30T18:38:46.376Z,3.00
2018-08-30T18:41:14.541Z,2.37
2018-08-30T18:43:43.601Z,2.80
2018-08-30T18:46:11.796Z,3.43
2018-08-30T18:48:39.960Z,3.33
2018-08-30T18:51:08.128Z,3.15
2018-08-30T18:53:36.311Z,3.10
2018-08-30T18:56:04.481Z,4.85
2018-08-30T18:58:32.596Z,2.70
2018-08-30T19:01:00.771Z,2.90
2018-08-30T19:03:28.866Z,3.57
2018-08-30T19:05:57.663Z,2.70
2018-08-30T19:08:25.844Z,3.23
2018-08-30T19:10:53.954Z,3.60
2018-08-30T19:13:22.109Z,4.70
2018-08-30T19:15:55.530Z,3.10
2018-08-30T19:18:29.137Z,2.80
2018-08-30T19:20:57.598Z,3.60
2018-08-30T19:23:25.732Z,5.50
2018-08-30T19:25:53.856Z,3.20
2018-08-30T19:28:21.988Z,3.47
2018-08-30T19:30:50.232Z,3.50
2018-08-30T19:33:18.340Z,2.93
2018-08-30T19:35:51.821Z,2.63
2018-08-30T19:38:20.039Z,3.50
2018-08-30T19:40:53.610Z,2.80
2018-08-30T19:43:21.802Z,3.30
2018-08-30T19:45:49.955Z,2.70
2018-08-30T19:48:18.068Z,3.20
2018-08-30T19:50:46.169Z,3.55
2018-08-30T19:53:14.310Z,3.00
2018-08-30T19:55:42.789Z,3.70
2018-08-30T19:58:10.887Z,2.87
2018-08-30T20:00:39.000Z,2.95
2018-08-30T20:03:07.152Z,3.37
2018-08-30T20:05:35.342Z,3.27
2018-08-30T20:08:03.492Z,4.22
2018-08-30T20:10:31.701Z,2.85
2018-08-30T20:12:59.848Z,2.83
2018-08-30T20:15:28.045Z,3.50
2018-08-30T20:17:56.211Z,3.47
2018-08-30T20:20:24.413Z,2.70
2018-08-30T20:22:52.563Z,3.20
2018-08-30T20:25:20.741Z,2.90
2018-08-30T20:27:49.000Z,2.65
2018-08-30T20:30:17.127Z,2.70
2018-08-30T20:32:45.254Z,3.23
2018-08-30T20:35:13.416Z,3.10
2018-08-30T20:37:41.542Z,2.73
2018-08-30T20:40:09.723Z,3.30
2018-08-30T20:42:37.894Z,3.47
2018-08-30T20:45:06.060Z,2.33
2018-08-30T20:47:34.214Z,3.23
2018-08-30T20:50:02.387Z,3.23
2018-08-30T20:52:30.550Z,2.60
2018-08-30T20:54:58.699Z,2.77
2018-08-30T20:57:26.824Z,2.70
2018-08-30T20:59:55.028Z,2.90
2018-08-30T21:02:23.237Z,3.10
2018-08-30T21:04:51.462Z,3.10
2018-08-30T21:07:19.613Z,2.30
2018-08-30T21:09:47.810Z,2.10
2018-08-30T21:12:15.972Z,2.03
2018-08-30T21:14:44.132Z,2.97
2018-08-30T21:17:12.285Z,2.50
2018-08-30T21:19:40.853Z,3.80
2018-08-30T21:22:09.080Z,3.62
2018-08-30T21:24:37.277Z,2.72
2018-08-30T21:27:05.557Z,3.20
2018-08-30T21:29:33.702Z,3.00
2018-08-30T21:32:01.856Z,2.80
2018-08-30T21:34:29.976Z,2.37
2018-08-30T21:36:58.117Z,2.90
2018-08-30T21:39:26.330Z,2.97
2018-08-30T21:41:54.476Z,3.33
2018-08-30T21:44:22.609Z,3.10
2018-08-30T21:46:50.768Z,2.20
2018-08-30T21:49:18.915Z,3.00
2018-08-30T21:51:47.092Z,3.67
2018-08-30T21:54:15.229Z,2.60
2018-08-30T21:56:43.392Z,4.12
2018-08-30T21:59:11.583Z,3.12
2018-08-30T22:01:39.749Z,3.20
2018-08-30T22:04:07.944Z,3.17
2018-08-30T22:06:36.106Z,2.98
2018-08-30T22:09:05.957Z,2.77
2018-08-30T22:11:34.093Z,3.57
2018-08-30T22:14:02.325Z,2.87
2018-08-30T22:16:30.452Z,2.83
2018-08-30T22:18:58.597Z,3.87
2018-08-30T22:21:26.738Z,3.20
2018-08-30T22:23:54.910Z,3.40
2018-08-30T22:26:23.065Z,3.07
2018-08-30T22:28:51.234Z,2.97
2018-08-30T22:31:19.372Z,2.63
2018-08-30T22:33:47.593Z,3.98
2018-08-30T22:36:15.792Z,3.02
2018-08-30T22:38:43.948Z,2.92
2018-08-30T22:41:12.122Z,3.52
2018-08-30T22:43:40.597Z,2.58
2018-08-30T22:46:08.847Z,3.70
2018-08-30T22:48:37.045Z,2.60
2018-08-30T22:51:05.272Z,2.67
2018-08-30T22:53:33.460Z,3.10
2018-08-30T22:56:01.973Z,2.43
2018-08-30T22:58:30.708Z,3.63
2018-08-30T23:00:58.907Z,3.20
2018-08-30T23:03:27.210Z,2.93
2018-08-30T23:05:55.447Z,3.17
2018-08-30T23:08:23.633Z,3.00
2018-08-30T23:10:53.233Z,3.40
2018-08-30T23:13:21.361Z,2.67
2018-08-30T23:15:49.598Z,3.33
2018-08-30T23:18:17.766Z,3.63
2018-08-30T23:20:45.936Z,3.25
2018-08-30T23:23:14.081Z,3.37
2018-08-30T23:25:42.243Z,3.80
2018-08-30T23:28:10.401Z,2.90
2018-08-30T23:30:38.678Z,3.50
2018-08-30T23:33:06.826Z,3.05
2018-08-30T23:35:34.981Z,3.00
2018-08-30T23:38:03.124Z,2.60
2018-08-30T23:40:31.300Z,2.80
2018-08-30T23:42:59.522Z,2.40
2018-08-30T23:45:27.681Z,3.10
2018-08-30T23:47:55.851Z,3.12
2018-08-30T23:50:24.020Z,2.67
2018-08-30T23:52:52.198Z,2.98
2018-08-30T23:55:20.413Z,3.43
2018-08-30T23:57:59.761Z,3.50
